Terminal Aerodrome Forecast
Issued by NWS

Home | Current Version | Previous Version | Text Only | Print | Product List | Glossary On
Versions: 1 2 3 4 5 6 7 8 9 10 11 12 13 14 15 16 17 18 19 20
000
FTUS43 KILX 270500
TAFBMI
TAF
KBMI 270533Z 2706/2806 VRB06KT P6SM SCT025 BKN250
     FM271000 VRB05KT 5SM BR SCT030 BKN200
     FM271500 06008KT P6SM VCSH SCT035 BKN150
     FM272300 07006KT P6SM BKN250=

USA.gov is the U.S. government's official web portal to all federal, state and local government web resources and services.